Anvil Green, United Kingdom
Current Conditions -  °F | °C
As of 8:20 AM on Friday 28 Nov 2014 (Local Time) from EGMD Reporting Station
Broken Clouds Broken Clouds  
Wind Chill: 52°   Ceiling: 1000
Heat Index: 52°   Visibility: 4mi
Dew Point: 52°   Wind: 13mph
Humidity: 100%   Direction: 80°E
Pressure: 29.59"   Gusts: NA
Location:  51.26°N, 1.11°E
Report Text: EGMD 280820Z 08011KT 7000 BKN010 11/11 Q1002
Loading
Personal Weather Stations






























Interactive Weather Map New forecast layout! Learn more

10-Day Weather Forecast

Advertisements
Track Severe Weather on mobile